sensor_id;sensor_type;location;lat;lon;timestamp;P1;durP1;ratioP1;P2;durP2;ratioP2
16272;SDS011;8244;50.044;9.006;2022-08-19T00:04:18;17.52;;;14.75;;
16272;SDS011;8244;50.044;9.006;2022-08-19T00:09:22;20.35;;;15.98;;
16272;SDS011;8244;50.044;9.006;2022-08-19T00:14:26;19.23;;;15.88;;
16272;SDS011;8244;50.044;9.006;2022-08-19T00:19:31;19.27;;;15.73;;
16272;SDS011;8244;50.044;9.006;2022-08-19T00:24:33;21.13;;;16.75;;
16272;SDS011;8244;50.044;9.006;2022-08-19T00:29:38;20.88;;;16.10;;
16272;SDS011;8244;50.044;9.006;2022-08-19T00:34:39;21.42;;;16.33;;
16272;SDS011;8244;50.044;9.006;2022-08-19T00:39:41;20.02;;;16.13;;
16272;SDS011;8244;50.044;9.006;2022-08-19T00:44:44;20.08;;;16.50;;
16272;SDS011;8244;50.044;9.006;2022-08-19T00:49:48;19.23;;;15.85;;
16272;SDS011;8244;50.044;9.006;2022-08-19T00:55:02;20.45;;;16.92;;
16272;SDS011;8244;50.044;9.006;2022-08-19T01:00:09;21.10;;;17.13;;
16272;SDS011;8244;50.044;9.006;2022-08-19T01:05:14;20.65;;;15.80;;
16272;SDS011;8244;50.044;9.006;2022-08-19T01:10:22;20.63;;;16.30;;
16272;SDS011;8244;50.044;9.006;2022-08-19T01:15:29;21.23;;;15.98;;
16272;SDS011;8244;50.044;9.006;2022-08-19T01:20:33;19.95;;;14.68;;
16272;SDS011;8244;50.044;9.006;2022-08-19T01:25:39;20.60;;;15.45;;
16272;SDS011;8244;50.044;9.006;2022-08-19T01:30:45;19.42;;;15.13;;
16272;SDS011;8244;50.044;9.006;2022-08-19T01:35:49;19.67;;;15.40;;
16272;SDS011;8244;50.044;9.006;2022-08-19T01:40:53;20.80;;;15.68;;
16272;SDS011;8244;50.044;9.006;2022-08-19T01:45:56;20.38;;;14.75;;
16272;SDS011;8244;50.044;9.006;2022-08-19T01:50:58;19.48;;;14.75;;
16272;SDS011;8244;50.044;9.006;2022-08-19T01:56:02;19.23;;;15.48;;
16272;SDS011;8244;50.044;9.006;2022-08-19T02:01:05;19.35;;;14.98;;
16272;SDS011;8244;50.044;9.006;2022-08-19T02:06:08;20.90;;;15.15;;
16272;SDS011;8244;50.044;9.006;2022-08-19T02:11:17;18.05;;;13.82;;
16272;SDS011;8244;50.044;9.006;2022-08-19T02:16:21;20.65;;;14.25;;
16272;SDS011;8244;50.044;9.006;2022-08-19T02:21:23;18.00;;;14.05;;
16272;SDS011;8244;50.044;9.006;2022-08-19T02:26:27;19.27;;;15.00;;
16272;SDS011;8244;50.044;9.006;2022-08-19T02:31:28;18.40;;;13.50;;
16272;SDS011;8244;50.044;9.006;2022-08-19T02:36:30;20.75;;;14.07;;
16272;SDS011;8244;50.044;9.006;2022-08-19T02:41:33;16.33;;;12.57;;
16272;SDS011;8244;50.044;9.006;2022-08-19T02:46:35;17.15;;;13.95;;
16272;SDS011;8244;50.044;9.006;2022-08-19T02:51:38;15.68;;;12.90;;
16272;SDS011;8244;50.044;9.006;2022-08-19T02:56:43;19.50;;;15.27;;
16272;SDS011;8244;50.044;9.006;2022-08-19T03:01:46;17.45;;;13.50;;
16272;SDS011;8244;50.044;9.006;2022-08-19T03:06:48;19.48;;;13.50;;
16272;SDS011;8244;50.044;9.006;2022-08-19T03:11:51;19.33;;;14.90;;
16272;SDS011;8244;50.044;9.006;2022-08-19T03:16:53;21.15;;;13.85;;
16272;SDS011;8244;50.044;9.006;2022-08-19T03:21:55;20.33;;;14.40;;
16272;SDS011;8244;50.044;9.006;2022-08-19T03:26:58;18.67;;;15.45;;
16272;SDS011;8244;50.044;9.006;2022-08-19T03:32:02;18.90;;;14.88;;
16272;SDS011;8244;50.044;9.006;2022-08-19T03:37:06;19.75;;;14.55;;
16272;SDS011;8244;50.044;9.006;2022-08-19T03:42:10;20.08;;;14.45;;
16272;SDS011;8244;50.044;9.006;2022-08-19T03:47:12;19.10;;;14.55;;
16272;SDS011;8244;50.044;9.006;2022-08-19T03:52:16;19.83;;;14.93;;
16272;SDS011;8244;50.044;9.006;2022-08-19T03:57:19;17.80;;;14.38;;
16272;SDS011;8244;50.044;9.006;2022-08-19T04:02:21;17.73;;;13.93;;
16272;SDS011;8244;50.044;9.006;2022-08-19T04:07:23;18.08;;;13.18;;
16272;SDS011;8244;50.044;9.006;2022-08-19T04:12:26;19.90;;;14.68;;
16272;SDS011;8244;50.044;9.006;2022-08-19T04:17:27;17.23;;;13.75;;
16272;SDS011;8244;50.044;9.006;2022-08-19T04:22:29;18.08;;;13.43;;
16272;SDS011;8244;50.044;9.006;2022-08-19T04:27:32;18.80;;;13.65;;
16272;SDS011;8244;50.044;9.006;2022-08-19T04:32:34;16.75;;;12.98;;
16272;SDS011;8244;50.044;9.006;2022-08-19T04:37:36;18.80;;;13.32;;
16272;SDS011;8244;50.044;9.006;2022-08-19T04:42:41;18.10;;;13.73;;
16272;SDS011;8244;50.044;9.006;2022-08-19T04:47:43;18.88;;;13.52;;
16272;SDS011;8244;50.044;9.006;2022-08-19T04:52:45;17.92;;;13.10;;
16272;SDS011;8244;50.044;9.006;2022-08-19T04:57:48;18.77;;;13.02;;
16272;SDS011;8244;50.044;9.006;2022-08-19T05:02:51;18.17;;;13.60;;
16272;SDS011;8244;50.044;9.006;2022-08-19T05:07:53;18.33;;;12.95;;
16272;SDS011;8244;50.044;9.006;2022-08-19T05:12:57;18.77;;;12.20;;
16272;SDS011;8244;50.044;9.006;2022-08-19T05:17:59;15.00;;;11.13;;
16272;SDS011;8244;50.044;9.006;2022-08-19T05:23:18;15.55;;;11.98;;
16272;SDS011;8244;50.044;9.006;2022-08-19T05:28:21;14.55;;;10.73;;
16272;SDS011;8244;50.044;9.006;2022-08-19T05:33:25;15.25;;;10.90;;
16272;SDS011;8244;50.044;9.006;2022-08-19T05:38:27;15.52;;;11.55;;
16272;SDS011;8244;50.044;9.006;2022-08-19T05:43:31;15.55;;;11.48;;
16272;SDS011;8244;50.044;9.006;2022-08-19T05:48:33;15.05;;;11.07;;
16272;SDS011;8244;50.044;9.006;2022-08-19T05:53:35;16.25;;;10.48;;
16272;SDS011;8244;50.044;9.006;2022-08-19T05:58:38;17.23;;;10.90;;
16272;SDS011;8244;50.044;9.006;2022-08-19T06:03:41;15.20;;;10.60;;
16272;SDS011;8244;50.044;9.006;2022-08-19T06:08:43;18.17;;;10.93;;
16272;SDS011;8244;50.044;9.006;2022-08-19T06:13:52;15.23;;;10.07;;
16272;SDS011;8244;50.044;9.006;2022-08-19T06:18:56;14.77;;;10.50;;
16272;SDS011;8244;50.044;9.006;2022-08-19T06:24:00;14.23;;;9.80;;
16272;SDS011;8244;50.044;9.006;2022-08-19T06:29:04;15.23;;;10.57;;
16272;SDS011;8244;50.044;9.006;2022-08-19T06:34:08;14.18;;;9.07;;
16272;SDS011;8244;50.044;9.006;2022-08-19T06:39:11;17.42;;;9.65;;
16272;SDS011;8244;50.044;9.006;2022-08-19T06:44:16;12.98;;;9.27;;
16272;SDS011;8244;50.044;9.006;2022-08-19T06:49:18;12.60;;;8.43;;
16272;SDS011;8244;50.044;9.006;2022-08-19T06:54:21;14.23;;;8.98;;
16272;SDS011;8244;50.044;9.006;2022-08-19T06:59:24;11.68;;;8.25;;
16272;SDS011;8244;50.044;9.006;2022-08-19T07:04:28;12.48;;;9.13;;
16272;SDS011;8244;50.044;9.006;2022-08-19T07:09:32;12.75;;;8.48;;
16272;SDS011;8244;50.044;9.006;2022-08-19T07:14:46;10.00;;;7.47;;
16272;SDS011;8244;50.044;9.006;2022-08-19T07:19:49;12.00;;;7.35;;
16272;SDS011;8244;50.044;9.006;2022-08-19T07:24:51;12.10;;;7.90;;
16272;SDS011;8244;50.044;9.006;2022-08-19T07:29:54;10.90;;;8.10;;
16272;SDS011;8244;50.044;9.006;2022-08-19T07:34:56;12.95;;;8.15;;
16272;SDS011;8244;50.044;9.006;2022-08-19T07:40:00;13.38;;;7.85;;
16272;SDS011;8244;50.044;9.006;2022-08-19T07:45:04;12.10;;;7.47;;
16272;SDS011;8244;50.044;9.006;2022-08-19T07:50:09;12.20;;;7.47;;
16272;SDS011;8244;50.044;9.006;2022-08-19T07:55:12;11.95;;;7.50;;
16272;SDS011;8244;50.044;9.006;2022-08-19T08:00:16;9.55;;;6.80;;
16272;SDS011;8244;50.044;9.006;2022-08-19T08:05:18;9.63;;;6.45;;
16272;SDS011;8244;50.044;9.006;2022-08-19T08:10:43;11.10;;;6.35;;
16272;SDS011;8244;50.044;9.006;2022-08-19T08:15:46;9.30;;;5.40;;
16272;SDS011;8244;50.044;9.006;2022-08-19T08:20:48;8.13;;;5.30;;
16272;SDS011;8244;50.044;9.006;2022-08-19T08:25:51;9.25;;;5.72;;
16272;SDS011;8244;50.044;9.006;2022-08-19T08:30:56;8.43;;;5.60;;
16272;SDS011;8244;50.044;9.006;2022-08-19T08:36:01;8.25;;;5.60;;
16272;SDS011;8244;50.044;9.006;2022-08-19T08:41:05;9.48;;;5.55;;
16272;SDS011;8244;50.044;9.006;2022-08-19T08:46:15;8.00;;;4.90;;
16272;SDS011;8244;50.044;9.006;2022-08-19T08:51:23;9.98;;;5.03;;
16272;SDS011;8244;50.044;9.006;2022-08-19T08:56:27;7.15;;;4.22;;
16272;SDS011;8244;50.044;9.006;2022-08-19T09:01:31;6.50;;;3.80;;
16272;SDS011;8244;50.044;9.006;2022-08-19T09:06:36;5.97;;;3.55;;
16272;SDS011;8244;50.044;9.006;2022-08-19T09:11:52;6.43;;;3.25;;
16272;SDS011;8244;50.044;9.006;2022-08-19T09:17:03;4.88;;;2.97;;
16272;SDS011;8244;50.044;9.006;2022-08-19T09:22:09;5.32;;;2.70;;
16272;SDS011;8244;50.044;9.006;2022-08-19T09:27:10;3.50;;;2.30;;
16272;SDS011;8244;50.044;9.006;2022-08-19T09:32:14;5.15;;;2.88;;
16272;SDS011;8244;50.044;9.006;2022-08-19T09:37:17;3.55;;;2.60;;
16272;SDS011;8244;50.044;9.006;2022-08-19T09:42:19;4.30;;;2.40;;
16272;SDS011;8244;50.044;9.006;2022-08-19T09:47:22;3.17;;;2.35;;
16272;SDS011;8244;50.044;9.006;2022-08-19T09:52:24;3.22;;;2.28;;
16272;SDS011;8244;50.044;9.006;2022-08-19T09:57:25;4.07;;;3.00;;
16272;SDS011;8244;50.044;9.006;2022-08-19T10:02:28;5.65;;;3.00;;
16272;SDS011;8244;50.044;9.006;2022-08-19T10:07:30;3.55;;;2.60;;
16272;SDS011;8244;50.044;9.006;2022-08-19T10:12:32;4.63;;;2.95;;
16272;SDS011;8244;50.044;9.006;2022-08-19T10:17:35;5.05;;;2.80;;
16272;SDS011;8244;50.044;9.006;2022-08-19T10:22:37;4.32;;;2.97;;
16272;SDS011;8244;50.044;9.006;2022-08-19T10:27:39;4.18;;;2.95;;
16272;SDS011;8244;50.044;9.006;2022-08-19T10:32:42;3.67;;;3.20;;
16272;SDS011;8244;50.044;9.006;2022-08-19T10:37:45;4.88;;;3.15;;
16272;SDS011;8244;50.044;9.006;2022-08-19T10:42:47;7.20;;;3.30;;
16272;SDS011;8244;50.044;9.006;2022-08-19T10:47:51;5.13;;;3.38;;
16272;SDS011;8244;50.044;9.006;2022-08-19T10:52:53;4.20;;;3.05;;
16272;SDS011;8244;50.044;9.006;2022-08-19T10:57:55;6.20;;;3.20;;
16272;SDS011;8244;50.044;9.006;2022-08-19T11:02:58;5.78;;;3.25;;
16272;SDS011;8244;50.044;9.006;2022-08-19T11:08:00;4.75;;;3.22;;
16272;SDS011;8244;50.044;9.006;2022-08-19T11:13:02;5.25;;;3.20;;
16272;SDS011;8244;50.044;9.006;2022-08-19T11:18:05;5.78;;;3.40;;
16272;SDS011;8244;50.044;9.006;2022-08-19T11:23:08;6.30;;;3.40;;
16272;SDS011;8244;50.044;9.006;2022-08-19T11:28:10;5.72;;;2.80;;
16272;SDS011;8244;50.044;9.006;2022-08-19T11:33:13;5.75;;;2.85;;
16272;SDS011;8244;50.044;9.006;2022-08-19T11:38:15;5.93;;;3.10;;
16272;SDS011;8244;50.044;9.006;2022-08-19T11:43:18;4.85;;;3.33;;
16272;SDS011;8244;50.044;9.006;2022-08-19T11:48:21;3.03;;;2.45;;
16272;SDS011;8244;50.044;9.006;2022-08-19T11:53:23;3.00;;;2.60;;
16272;SDS011;8244;50.044;9.006;2022-08-19T11:58:25;3.53;;;2.60;;
16272;SDS011;8244;50.044;9.006;2022-08-19T12:03:34;5.03;;;2.97;;
16272;SDS011;8244;50.044;9.006;2022-08-19T12:08:36;5.35;;;2.60;;
16272;SDS011;8244;50.044;9.006;2022-08-19T12:13:38;4.85;;;2.80;;
16272;SDS011;8244;50.044;9.006;2022-08-19T12:18:42;3.72;;;2.60;;
16272;SDS011;8244;50.044;9.006;2022-08-19T12:23:46;3.55;;;2.65;;
16272;SDS011;8244;50.044;9.006;2022-08-19T12:28:49;5.13;;;2.40;;
16272;SDS011;8244;50.044;9.006;2022-08-19T12:33:52;4.15;;;2.50;;
16272;SDS011;8244;50.044;9.006;2022-08-19T12:38:54;3.33;;;2.60;;
16272;SDS011;8244;50.044;9.006;2022-08-19T12:43:58;2.80;;;2.60;;
16272;SDS011;8244;50.044;9.006;2022-08-19T12:49:02;4.47;;;2.65;;
16272;SDS011;8244;50.044;9.006;2022-08-19T12:54:03;3.72;;;2.80;;
16272;SDS011;8244;50.044;9.006;2022-08-19T12:59:06;5.25;;;2.75;;
16272;SDS011;8244;50.044;9.006;2022-08-19T13:04:10;5.53;;;2.90;;
16272;SDS011;8244;50.044;9.006;2022-08-19T13:09:12;3.35;;;2.53;;
16272;SDS011;8244;50.044;9.006;2022-08-19T13:14:14;4.30;;;2.85;;
16272;SDS011;8244;50.044;9.006;2022-08-19T13:19:17;3.33;;;2.60;;
16272;SDS011;8244;50.044;9.006;2022-08-19T13:24:20;3.33;;;2.80;;
16272;SDS011;8244;50.044;9.006;2022-08-19T13:29:22;5.80;;;3.30;;
16272;SDS011;8244;50.044;9.006;2022-08-19T13:34:43;3.92;;;3.50;;
16272;SDS011;8244;50.044;9.006;2022-08-19T13:39:46;4.97;;;3.53;;
16272;SDS011;8244;50.044;9.006;2022-08-19T13:44:48;5.85;;;3.60;;
16272;SDS011;8244;50.044;9.006;2022-08-19T13:49:51;4.47;;;3.90;;
16272;SDS011;8244;50.044;9.006;2022-08-19T13:54:55;6.00;;;3.80;;
16272;SDS011;8244;50.044;9.006;2022-08-19T13:59:58;4.30;;;3.90;;
16272;SDS011;8244;50.044;9.006;2022-08-19T14:05:02;6.40;;;4.10;;
16272;SDS011;8244;50.044;9.006;2022-08-19T14:10:05;5.38;;;4.30;;
16272;SDS011;8244;50.044;9.006;2022-08-19T14:15:09;8.05;;;4.45;;
16272;SDS011;8244;50.044;9.006;2022-08-19T14:20:14;4.90;;;3.95;;
16272;SDS011;8244;50.044;9.006;2022-08-19T14:25:18;5.22;;;4.25;;
16272;SDS011;8244;50.044;9.006;2022-08-19T14:30:23;5.07;;;4.40;;
16272;SDS011;8244;50.044;9.006;2022-08-19T14:35:29;5.72;;;4.80;;
16272;SDS011;8244;50.044;9.006;2022-08-19T14:40:34;5.43;;;4.57;;
16272;SDS011;8244;50.044;9.006;2022-08-19T14:45:37;5.93;;;4.80;;
16272;SDS011;8244;50.044;9.006;2022-08-19T14:50:41;6.60;;;5.40;;
16272;SDS011;8244;50.044;9.006;2022-08-19T14:55:43;5.22;;;4.72;;
16272;SDS011;8244;50.044;9.006;2022-08-19T15:00:46;6.53;;;4.60;;
16272;SDS011;8244;50.044;9.006;2022-08-19T15:05:49;5.88;;;4.88;;
16272;SDS011;8244;50.044;9.006;2022-08-19T15:10:50;5.68;;;4.90;;
16272;SDS011;8244;50.044;9.006;2022-08-19T15:15:53;7.38;;;4.63;;
16272;SDS011;8244;50.044;9.006;2022-08-19T15:20:56;5.78;;;4.50;;
16272;SDS011;8244;50.044;9.006;2022-08-19T15:25:59;7.70;;;4.68;;
16272;SDS011;8244;50.044;9.006;2022-08-19T15:31:00;7.82;;;4.50;;
16272;SDS011;8244;50.044;9.006;2022-08-19T15:36:10;6.50;;;4.40;;
16272;SDS011;8244;50.044;9.006;2022-08-19T15:41:15;5.07;;;4.40;;
16272;SDS011;8244;50.044;9.006;2022-08-19T15:46:25;7.32;;;4.60;;
16272;SDS011;8244;50.044;9.006;2022-08-19T15:51:31;5.07;;;4.15;;
16272;SDS011;8244;50.044;9.006;2022-08-19T15:56:35;6.50;;;4.40;;
16272;SDS011;8244;50.044;9.006;2022-08-19T16:02:00;6.88;;;4.00;;
16272;SDS011;8244;50.044;9.006;2022-08-19T16:07:21;6.10;;;4.00;;
16272;SDS011;8244;50.044;9.006;2022-08-19T16:12:22;7.28;;;3.92;;
16272;SDS011;8244;50.044;9.006;2022-08-19T16:17:29;5.25;;;3.70;;
16272;SDS011;8244;50.044;9.006;2022-08-19T16:22:32;4.75;;;3.70;;
16272;SDS011;8244;50.044;9.006;2022-08-19T16:27:34;6.15;;;3.67;;
16272;SDS011;8244;50.044;9.006;2022-08-19T16:32:36;4.40;;;3.85;;
16272;SDS011;8244;50.044;9.006;2022-08-19T16:37:44;5.35;;;4.38;;
16272;SDS011;8244;50.044;9.006;2022-08-19T16:42:46;6.43;;;4.13;;
16272;SDS011;8244;50.044;9.006;2022-08-19T16:47:48;6.28;;;4.15;;
16272;SDS011;8244;50.044;9.006;2022-08-19T16:52:51;6.25;;;4.00;;
16272;SDS011;8244;50.044;9.006;2022-08-19T16:57:53;5.68;;;4.07;;
16272;SDS011;8244;50.044;9.006;2022-08-19T17:02:55;7.72;;;4.00;;
16272;SDS011;8244;50.044;9.006;2022-08-19T17:07:58;7.03;;;4.10;;
16272;SDS011;8244;50.044;9.006;2022-08-19T17:13:00;5.32;;;4.13;;
16272;SDS011;8244;50.044;9.006;2022-08-19T17:18:02;5.75;;;3.90;;
16272;SDS011;8244;50.044;9.006;2022-08-19T17:23:08;6.40;;;4.55;;
16272;SDS011;8244;50.044;9.006;2022-08-19T17:28:13;5.65;;;4.20;;
16272;SDS011;8244;50.044;9.006;2022-08-19T17:33:17;5.00;;;3.85;;
16272;SDS011;8244;50.044;9.006;2022-08-19T17:38:21;5.72;;;4.13;;
16272;SDS011;8244;50.044;9.006;2022-08-19T17:43:23;4.50;;;3.92;;
16272;SDS011;8244;50.044;9.006;2022-08-19T17:48:25;5.43;;;3.95;;
16272;SDS011;8244;50.044;9.006;2022-08-19T17:53:28;5.55;;;3.92;;
16272;SDS011;8244;50.044;9.006;2022-08-19T17:58:30;5.72;;;4.53;;
16272;SDS011;8244;50.044;9.006;2022-08-19T18:03:34;6.50;;;4.15;;
16272;SDS011;8244;50.044;9.006;2022-08-19T18:08:38;5.32;;;4.30;;
16272;SDS011;8244;50.044;9.006;2022-08-19T18:13:39;6.10;;;4.45;;
16272;SDS011;8244;50.044;9.006;2022-08-19T18:18:42;6.70;;;4.10;;
16272;SDS011;8244;50.044;9.006;2022-08-19T18:23:45;6.85;;;4.68;;
16272;SDS011;8244;50.044;9.006;2022-08-19T18:28:47;6.35;;;4.50;;
16272;SDS011;8244;50.044;9.006;2022-08-19T18:33:50;7.70;;;4.28;;
16272;SDS011;8244;50.044;9.006;2022-08-19T18:38:54;8.05;;;4.80;;
16272;SDS011;8244;50.044;9.006;2022-08-19T18:44:13;6.68;;;4.47;;
16272;SDS011;8244;50.044;9.006;2022-08-19T18:49:32;4.43;;;4.03;;
16272;SDS011;8244;50.044;9.006;2022-08-19T18:54:35;7.28;;;4.43;;
16272;SDS011;8244;50.044;9.006;2022-08-19T18:59:37;5.80;;;4.30;;
16272;SDS011;8244;50.044;9.006;2022-08-19T19:04:40;5.65;;;4.55;;
16272;SDS011;8244;50.044;9.006;2022-08-19T19:09:44;6.45;;;4.55;;
16272;SDS011;8244;50.044;9.006;2022-08-19T19:14:46;7.72;;;4.47;;
16272;SDS011;8244;50.044;9.006;2022-08-19T19:19:48;6.43;;;4.68;;
16272;SDS011;8244;50.044;9.006;2022-08-19T19:24:51;8.02;;;4.93;;
16272;SDS011;8244;50.044;9.006;2022-08-19T19:29:54;6.10;;;4.60;;
16272;SDS011;8244;50.044;9.006;2022-08-19T19:34:56;8.25;;;4.60;;
16272;SDS011;8244;50.044;9.006;2022-08-19T19:39:59;6.18;;;4.50;;
16272;SDS011;8244;50.044;9.006;2022-08-19T19:45:02;6.88;;;4.85;;
16272;SDS011;8244;50.044;9.006;2022-08-19T19:50:04;5.45;;;4.75;;
16272;SDS011;8244;50.044;9.006;2022-08-19T19:55:09;6.75;;;4.80;;
16272;SDS011;8244;50.044;9.006;2022-08-19T20:00:15;6.78;;;4.80;;
16272;SDS011;8244;50.044;9.006;2022-08-19T20:05:28;6.55;;;4.65;;
16272;SDS011;8244;50.044;9.006;2022-08-19T20:10:32;11.10;;;5.40;;
16272;SDS011;8244;50.044;9.006;2022-08-19T20:15:34;7.50;;;5.10;;
16272;SDS011;8244;50.044;9.006;2022-08-19T20:20:37;6.88;;;5.00;;
16272;SDS011;8244;50.044;9.006;2022-08-19T20:25:40;8.38;;;5.15;;
16272;SDS011;8244;50.044;9.006;2022-08-19T20:30:42;9.15;;;5.70;;
16272;SDS011;8244;50.044;9.006;2022-08-19T20:35:44;8.50;;;5.18;;
16272;SDS011;8244;50.044;9.006;2022-08-19T20:40:48;7.57;;;5.47;;
16272;SDS011;8244;50.044;9.006;2022-08-19T20:45:50;7.15;;;5.55;;
16272;SDS011;8244;50.044;9.006;2022-08-19T20:50:51;7.53;;;5.35;;
16272;SDS011;8244;50.044;9.006;2022-08-19T20:55:57;9.60;;;5.45;;
16272;SDS011;8244;50.044;9.006;2022-08-19T21:00:59;9.25;;;5.80;;
16272;SDS011;8244;50.044;9.006;2022-08-19T21:06:03;7.72;;;5.70;;
16272;SDS011;8244;50.044;9.006;2022-08-19T21:11:06;7.85;;;5.43;;
16272;SDS011;8244;50.044;9.006;2022-08-19T21:16:10;8.77;;;5.60;;
16272;SDS011;8244;50.044;9.006;2022-08-19T21:21:11;10.35;;;5.95;;
16272;SDS011;8244;50.044;9.006;2022-08-19T21:26:15;9.75;;;5.85;;
16272;SDS011;8244;50.044;9.006;2022-08-19T21:31:17;6.75;;;5.30;;
16272;SDS011;8244;50.044;9.006;2022-08-19T21:36:20;8.50;;;5.53;;
16272;SDS011;8244;50.044;9.006;2022-08-19T21:41:23;8.77;;;5.07;;
16272;SDS011;8244;50.044;9.006;2022-08-19T21:46:25;8.38;;;5.30;;
16272;SDS011;8244;50.044;9.006;2022-08-19T21:51:27;8.63;;;5.40;;
16272;SDS011;8244;50.044;9.006;2022-08-19T21:56:30;7.10;;;5.47;;
16272;SDS011;8244;50.044;9.006;2022-08-19T22:01:32;12.00;;;5.53;;
16272;SDS011;8244;50.044;9.006;2022-08-19T22:06:34;7.25;;;4.97;;
16272;SDS011;8244;50.044;9.006;2022-08-19T22:11:37;8.57;;;5.53;;
16272;SDS011;8244;50.044;9.006;2022-08-19T22:16:40;9.40;;;5.57;;
16272;SDS011;8244;50.044;9.006;2022-08-19T22:21:42;7.93;;;5.30;;
16272;SDS011;8244;50.044;9.006;2022-08-19T22:26:45;8.57;;;5.18;;
16272;SDS011;8244;50.044;9.006;2022-08-19T22:31:47;7.95;;;5.20;;
16272;SDS011;8244;50.044;9.006;2022-08-19T22:36:49;6.97;;;5.25;;
16272;SDS011;8244;50.044;9.006;2022-08-19T22:41:52;8.73;;;6.00;;
16272;SDS011;8244;50.044;9.006;2022-08-19T22:46:54;9.65;;;5.97;;
16272;SDS011;8244;50.044;9.006;2022-08-19T22:51:56;8.63;;;6.10;;
16272;SDS011;8244;50.044;9.006;2022-08-19T22:57:19;7.90;;;5.68;;
16272;SDS011;8244;50.044;9.006;2022-08-19T23:02:22;7.85;;;5.95;;
16272;SDS011;8244;50.044;9.006;2022-08-19T23:07:26;8.63;;;5.90;;
16272;SDS011;8244;50.044;9.006;2022-08-19T23:12:30;9.90;;;5.97;;
16272;SDS011;8244;50.044;9.006;2022-08-19T23:17:33;11.50;;;6.07;;
16272;SDS011;8244;50.044;9.006;2022-08-19T23:22:36;9.25;;;6.00;;
16272;SDS011;8244;50.044;9.006;2022-08-19T23:27:39;10.43;;;6.80;;
16272;SDS011;8244;50.044;9.006;2022-08-19T23:32:59;9.85;;;6.32;;
16272;SDS011;8244;50.044;9.006;2022-08-19T23:38:07;8.48;;;6.45;;
16272;SDS011;8244;50.044;9.006;2022-08-19T23:43:11;9.52;;;6.50;;
16272;SDS011;8244;50.044;9.006;2022-08-19T23:48:14;10.55;;;6.90;;
16272;SDS011;8244;50.044;9.006;2022-08-19T23:53:17;9.35;;;5.97;;
16272;SDS011;8244;50.044;9.006;2022-08-19T23:58:21;10.23;;;5.90;;
